Kezdőlap
METAR-TAF:

METAR-TAF

Repülőterek :

Spencer Municipal Airport

Spencer, Iowa, Amerikai Egyesült Államok

földrajzi szélesség: 43-09-56N, földrajzi hosszúság: 095-12-10W, magasság: 408 m

Jelenlegi meteorológiai megfigyelések

A jelentés 19 perccel ezelõtt készült, 14:53 UTC
Északi szél 12 kt
Hőmérséklet 8°C
Páratartalom 76%
Légköri nyomás 1011 hPa
Látótávolság: 16.1 km
Szakadozott felhőzet 1600 lábon
Borult 5500 lábon

METAR: KSPW 181453Z AUTO 35012KT 10SM BKN016 OVC055 08/04 A2986 RMK AO2 SLP118 T00830044 53018

Idő: 10:12 (15:12 UTC)


TAF: hiányzik

Meteorológiai megfigyelések és előrejelzések több, mint 4000 repülőtéren (METAR és TAF jelentéseket).

A térképen piros és sárga pontok jelzik az elérhető meteorológiai állomásokat.

Mozgassa az egeret a pont fölött, hogy megjelenjen az állomás neve.

Azután kattintson az időjárási megfigyelések és előrejelzések megtekintéséhez.

A térkép megváltoztatása: kattintson a fekete keresztel jelölt zöld gombra ráközelítéshez, a vonallal jelölt zöld gombra távolításhoz, vagy a zöld nyilakra a szomszédos térképek eléréséhez.


METAR-TAF: